createdAt,value
2023-04-12T00:00:10.770Z,72.01
2023-04-12T00:03:33.759Z,72.02
2023-04-12T00:06:35.725Z,72.12
2023-04-12T00:09:37.474Z,72.26
2023-04-12T00:12:40.409Z,72.29
2023-04-12T00:15:42.121Z,72.30
2023-04-12T00:18:45.105Z,72.30
2023-04-12T00:21:46.817Z,72.25
2023-04-12T00:24:48.566Z,72.25
2023-04-12T00:27:50.714Z,72.19
2023-04-12T00:30:52.505Z,72.19
2023-04-12T00:33:54.557Z,72.20
2023-04-12T00:36:56.288Z,72.21
2023-04-12T00:39:57.971Z,72.14
2023-04-12T00:43:00.004Z,72.16
2023-04-12T00:46:01.873Z,72.05
2023-04-12T00:49:03.823Z,72.11
2023-04-12T00:52:09.424Z,72.16
2023-04-12T00:55:12.177Z,72.05
2023-04-12T00:58:14.170Z,72.04
2023-04-12T01:01:16.682Z,72.06
2023-04-12T01:04:21.905Z,72.04
2023-04-12T01:07:50.858Z,72.03
2023-04-12T01:11:16.343Z,71.97
2023-04-12T01:14:30.445Z,72.02
2023-04-12T01:17:38.199Z,72.07
2023-04-12T01:21:13.264Z,72.10
2023-04-12T01:24:38.246Z,72.07
2023-04-12T01:27:47.780Z,71.97
2023-04-12T01:30:53.709Z,72.02
2023-04-12T01:33:58.818Z,72.02
2023-04-12T01:37:02.917Z,71.94
2023-04-12T01:40:07.284Z,71.93
2023-04-12T01:43:13.372Z,71.88
2023-04-12T01:46:17.967Z,71.88
2023-04-12T01:49:24.125Z,71.85
2023-04-12T01:52:31.370Z,71.81
2023-04-12T01:55:37.615Z,71.76
2023-04-12T01:58:42.280Z,71.75
2023-04-12T02:01:46.042Z,71.81
2023-04-12T02:04:47.882Z,71.80
2023-04-12T02:07:50.617Z,71.84
2023-04-12T02:10:54.255Z,71.84
2023-04-12T02:13:56.112Z,71.80
2023-04-12T02:16:59.153Z,71.79
2023-04-12T02:20:03.038Z,71.78
2023-04-12T02:23:06.125Z,71.73
2023-04-12T02:26:07.761Z,71.82
2023-04-12T02:29:09.877Z,71.71
2023-04-12T02:32:12.340Z,71.68
2023-04-12T02:35:16.982Z,71.60
2023-04-12T02:38:18.927Z,71.60
2023-04-12T02:41:21.365Z,71.62
2023-04-12T02:44:23.241Z,71.52
2023-04-12T02:47:42.137Z,71.47
2023-04-12T02:50:44.626Z,71.42
2023-04-12T02:53:51.294Z,71.37
2023-04-12T02:56:56.190Z,71.33
2023-04-12T03:00:14.663Z,71.25
2023-04-12T03:03:19.245Z,71.23
2023-04-12T03:06:21.206Z,71.21
2023-04-12T03:09:23.278Z,71.18
2023-04-12T03:12:25.016Z,71.12
2023-04-12T03:15:47.273Z,71.04
2023-04-12T03:18:50.528Z,70.92
2023-04-12T03:21:53.651Z,70.86
2023-04-12T03:24:55.955Z,70.91
2023-04-12T03:27:57.896Z,70.97
2023-04-12T03:31:04.791Z,70.93
2023-04-12T03:34:17.268Z,70.95
2023-04-12T03:37:21.783Z,70.92
2023-04-12T03:40:23.793Z,71.08
2023-04-12T03:43:35.364Z,71.04
2023-04-12T03:46:38.906Z,71.04
2023-04-12T03:49:43.662Z,70.92
2023-04-12T03:52:47.514Z,70.90
2023-04-12T03:55:49.221Z,70.88
2023-04-12T03:58:51.049Z,70.84
2023-04-12T04:01:55.026Z,70.83
2023-04-12T04:04:57.239Z,70.84
2023-04-12T04:08:01.726Z,70.86
2023-04-12T04:11:06.707Z,70.72
2023-04-12T04:14:13.297Z,70.72
2023-04-12T04:17:14.992Z,70.67
2023-04-12T04:20:18.241Z,70.71
2023-04-12T04:23:23.129Z,70.70
2023-04-12T04:26:32.986Z,70.67
2023-04-12T04:29:43.789Z,70.74
2023-04-12T04:32:45.679Z,70.70
2023-04-12T04:35:47.691Z,70.71
2023-04-12T04:39:01.688Z,70.65
2023-04-12T04:42:12.974Z,70.74
2023-04-12T04:45:17.851Z,70.74
2023-04-12T04:48:20.654Z,70.82
2023-04-12T04:51:22.339Z,70.87
2023-04-12T04:54:24.139Z,70.90
2023-04-12T04:57:26.197Z,70.94
2023-04-12T05:00:30.531Z,70.93
2023-04-12T05:03:33.563Z,70.83
2023-04-12T05:06:35.409Z,70.89
2023-04-12T05:09:37.384Z,70.91
2023-04-12T05:12:39.326Z,70.91
2023-04-12T05:15:41.058Z,70.89
2023-04-12T05:18:42.792Z,70.96
2023-04-12T05:21:44.460Z,71.01
2023-04-12T05:24:47.150Z,71.02
2023-04-12T05:27:51.406Z,70.99
2023-04-12T05:30:54.170Z,71.02
2023-04-12T05:33:58.253Z,71.13
2023-04-12T05:37:04.214Z,71.06
2023-04-12T05:40:09.257Z,71.07
2023-04-12T05:43:14.320Z,71.19
2023-04-12T05:46:16.126Z,71.17
2023-04-12T05:49:19.019Z,71.08
2023-04-12T05:52:20.945Z,71.01
2023-04-12T05:55:25.284Z,71.02
2023-04-12T05:58:27.022Z,71.01
2023-04-12T06:01:31.844Z,71.05
2023-04-12T06:04:49.275Z,71.04
2023-04-12T06:07:53.207Z,70.91
2023-04-12T06:10:55.152Z,71.01
2023-04-12T06:13:57.172Z,70.88
2023-04-12T06:17:06.586Z,70.89
2023-04-12T06:20:09.071Z,70.79
2023-04-12T06:23:12.220Z,70.73
2023-04-12T06:26:18.673Z,70.77
2023-04-12T06:29:20.827Z,70.72
2023-04-12T06:32:22.788Z,70.77
2023-04-12T06:35:24.651Z,70.69
2023-04-12T06:38:26.551Z,70.57
2023-04-12T06:41:28.373Z,70.67
2023-04-12T06:44:36.079Z,70.67
2023-04-12T06:47:37.883Z,70.61
2023-04-12T06:50:39.795Z,70.62
2023-04-12T06:53:41.487Z,70.71
2023-04-12T06:56:43.213Z,70.71
2023-04-12T06:59:44.906Z,70.78
2023-04-12T07:02:46.871Z,70.72
2023-04-12T07:05:48.757Z,70.68
2023-04-12T07:08:50.486Z,70.60
2023-04-12T07:11:52.345Z,70.53
2023-04-12T07:14:54.121Z,70.45
2023-04-12T07:17:56.292Z,70.33
2023-04-12T07:20:58.369Z,70.23
2023-04-12T07:24:01.200Z,73.38
2023-04-12T07:27:03.578Z,73.34
2023-04-12T07:30:10.149Z,71.41
2023-04-12T07:33:19.599Z,70.14
2023-04-12T07:36:21.890Z,69.26
2023-04-12T07:39:23.758Z,68.49
2023-04-12T07:42:26.393Z,67.83
2023-04-12T07:45:28.663Z,67.74
2023-04-12T07:48:30.662Z,67.08
2023-04-12T07:51:33.015Z,67.46
2023-04-12T07:54:34.939Z,66.87
2023-04-12T07:57:37.333Z,67.15
2023-04-12T08:00:39.263Z,66.46
2023-04-12T08:03:41.342Z,66.23
2023-04-12T08:06:43.182Z,66.17
2023-04-12T08:09:46.219Z,65.70
2023-04-12T08:12:48.079Z,65.26
2023-04-12T08:15:49.962Z,65.23
2023-04-12T08:18:52.027Z,64.70
2023-04-12T08:21:53.749Z,64.43
2023-04-12T08:24:55.556Z,64.05
2023-04-12T08:27:58.599Z,63.96
2023-04-12T08:31:00.935Z,63.68
2023-04-12T08:34:02.742Z,63.56
2023-04-12T08:37:05.166Z,63.74
2023-04-12T08:40:07.693Z,63.65
2023-04-12T08:43:11.347Z,63.15
2023-04-12T08:46:16.822Z,63.10
2023-04-12T08:49:19.809Z,62.69
2023-04-12T08:52:21.798Z,62.03
2023-04-12T08:55:28.699Z,61.88
2023-04-12T08:58:33.267Z,61.97
2023-04-12T09:01:36.550Z,61.67
2023-04-12T09:04:51.828Z,61.47
2023-04-12T09:07:56.919Z,61.14
2023-04-12T09:10:59.712Z,60.37
2023-04-12T09:14:02.027Z,59.90
2023-04-12T09:17:04.704Z,60.16
2023-04-12T09:20:15.252Z,59.93
2023-04-12T09:23:21.919Z,59.98
2023-04-12T09:26:30.966Z,59.34
2023-04-12T09:29:36.089Z,58.91
2023-04-12T09:32:37.917Z,58.25
2023-04-12T09:35:40.307Z,57.47
2023-04-12T09:38:59.015Z,57.00
2023-04-12T09:42:18.141Z,56.78
2023-04-12T09:45:34.330Z,56.93
2023-04-12T09:48:38.272Z,56.70
2023-04-12T09:51:40.145Z,56.61
2023-04-12T09:54:44.601Z,56.46
2023-04-12T09:57:48.151Z,56.16
2023-04-12T10:00:50.502Z,56.12
2023-04-12T10:03:53.852Z,55.82
2023-04-12T10:06:59.337Z,55.41
2023-04-12T10:10:03.535Z,54.69
2023-04-12T10:13:06.497Z,55.03
2023-04-12T10:16:09.274Z,54.87
2023-04-12T10:19:12.495Z,55.96
2023-04-12T10:22:16.966Z,56.11
2023-04-12T10:25:21.781Z,55.64
2023-04-12T10:28:24.038Z,54.47
2023-04-12T10:31:30.069Z,54.50
2023-04-12T10:34:33.312Z,54.21
2023-04-12T10:37:56.444Z,54.66
2023-04-12T10:41:13.237Z,54.85
2023-04-12T10:44:28.587Z,55.25
2023-04-12T10:47:49.574Z,54.88
2023-04-12T10:51:24.742Z,53.91
2023-04-12T10:54:26.851Z,53.63
2023-04-12T10:57:43.442Z,53.26
2023-04-12T11:01:05.828Z,53.45
2023-04-12T11:04:16.701Z,62.04
2023-04-12T11:07:42.139Z,63.42
2023-04-12T11:11:05.074Z,57.49
2023-04-12T11:14:12.141Z,56.77
2023-04-12T11:17:17.172Z,55.98
2023-04-12T11:20:19.864Z,54.91
2023-04-12T11:23:23.201Z,54.39
2023-04-12T11:26:29.222Z,53.79
2023-04-12T11:29:32.058Z,53.41
2023-04-12T11:32:34.819Z,53.36
2023-04-12T11:35:36.788Z,52.65
2023-04-12T11:38:39.235Z,52.49
2023-04-12T11:41:45.285Z,51.95
2023-04-12T11:44:57.099Z,50.20
2023-04-12T11:47:59.880Z,50.17
2023-04-12T11:51:18.342Z,49.13
2023-04-12T11:54:20.284Z,48.04
2023-04-12T11:57:22.132Z,47.45
2023-04-12T12:00:25.010Z,46.22
2023-04-12T12:03:27.666Z,46.03
2023-04-12T12:06:31.194Z,45.17
2023-04-12T12:09:34.129Z,44.91
2023-04-12T12:12:35.905Z,44.57
2023-04-12T12:15:38.048Z,43.81
2023-04-12T12:18:43.639Z,44.47
2023-04-12T12:21:45.567Z,44.69
2023-04-12T12:24:51.524Z,44.21
2023-04-12T12:27:57.054Z,44.11
2023-04-12T12:30:59.121Z,43.32
2023-04-12T12:34:02.292Z,42.91
2023-04-12T12:37:12.527Z,42.71
2023-04-12T12:40:14.922Z,42.31
2023-04-12T12:43:19.510Z,42.53
2023-04-12T12:46:21.372Z,41.91
2023-04-12T12:49:23.367Z,42.06
2023-04-12T12:52:25.583Z,41.90
2023-04-12T12:55:28.810Z,42.44
2023-04-12T12:58:31.310Z,42.72
2023-04-12T13:01:33.145Z,41.93
2023-04-12T13:04:35.212Z,41.69
2023-04-12T13:07:37.501Z,41.62
2023-04-12T13:10:39.299Z,41.96
2023-04-12T13:13:41.072Z,42.02
2023-04-12T13:16:45.450Z,41.69
2023-04-12T13:19:47.781Z,41.54
2023-04-12T13:22:53.507Z,41.62
2023-04-12T13:25:55.378Z,41.87
2023-04-12T13:28:57.617Z,42.17
2023-04-12T13:32:00.022Z,42.31
2023-04-12T13:35:02.533Z,42.96
2023-04-12T13:38:04.371Z,43.29
2023-04-12T13:41:06.467Z,43.28
2023-04-12T13:44:08.544Z,43.42
2023-04-12T13:47:10.681Z,43.34
2023-04-12T13:50:12.550Z,43.34
2023-04-12T13:53:14.498Z,43.86
2023-04-12T13:56:16.521Z,43.18
2023-04-12T13:59:18.474Z,43.62
2023-04-12T14:02:20.382Z,43.06
2023-04-12T14:05:22.512Z,43.18
2023-04-12T14:08:24.321Z,43.44
2023-04-12T14:11:26.151Z,43.36
2023-04-12T14:14:31.540Z,43.25
2023-04-12T14:17:33.477Z,42.84
2023-04-12T14:20:35.513Z,42.80
2023-04-12T14:23:37.342Z,42.86
2023-04-12T14:26:39.410Z,42.69
2023-04-12T14:29:41.523Z,43.45
2023-04-12T14:32:45.177Z,43.16
2023-04-12T14:35:48.359Z,43.57
2023-04-12T14:38:50.360Z,43.67
2023-04-12T14:41:52.064Z,43.96
2023-04-12T14:44:53.866Z,44.15
2023-04-12T14:47:55.881Z,44.22
2023-04-12T14:50:57.660Z,43.59
2023-04-12T14:53:59.640Z,43.48
2023-04-12T14:57:01.659Z,43.28
2023-04-12T15:00:06.199Z,43.56
2023-04-12T15:03:08.103Z,43.45
2023-04-12T15:06:10.588Z,43.20
2023-04-12T15:09:13.388Z,43.38
2023-04-12T15:12:16.572Z,43.61
2023-04-12T15:15:19.524Z,43.78
2023-04-12T15:18:21.360Z,43.74
2023-04-12T15:21:23.095Z,43.74
2023-04-12T15:24:24.990Z,43.64
2023-04-12T15:27:27.568Z,43.66
2023-04-12T15:30:30.070Z,43.84
2023-04-12T15:33:34.068Z,44.35
2023-04-12T15:36:37.082Z,44.08
2023-04-12T15:39:39.660Z,44.20
2023-04-12T15:42:43.093Z,44.16
2023-04-12T15:45:45.365Z,44.23
2023-04-12T15:48:47.543Z,44.66
2023-04-12T15:51:49.944Z,44.98
2023-04-12T15:54:51.657Z,44.89
2023-04-12T15:57:53.648Z,44.31
2023-04-12T16:00:55.464Z,44.25
2023-04-12T16:03:57.644Z,44.12
2023-04-12T16:07:01.720Z,44.30
2023-04-12T16:10:05.652Z,44.54
2023-04-12T16:13:08.821Z,44.74
2023-04-12T16:16:17.185Z,44.80
2023-04-12T16:19:18.983Z,45.02
2023-04-12T16:22:21.069Z,44.63
2023-04-12T16:25:24.809Z,44.70
2023-04-12T16:28:27.740Z,44.50
2023-04-12T16:31:31.183Z,44.27
2023-04-12T16:34:33.039Z,44.59
2023-04-12T16:37:37.051Z,44.53
2023-04-12T16:40:39.493Z,44.54
2023-04-12T16:43:43.410Z,44.96
2023-04-12T16:46:48.484Z,45.27
2023-04-12T16:49:50.734Z,45.45
2023-04-12T16:52:55.290Z,45.37
2023-04-12T16:56:01.294Z,45.67
2023-04-12T16:59:05.243Z,48.81
2023-04-12T17:02:07.441Z,47.73
2023-04-12T17:05:09.598Z,47.48
2023-04-12T17:08:11.735Z,47.41
2023-04-12T17:11:14.449Z,47.23
2023-04-12T17:14:16.703Z,47.54
2023-04-12T17:17:18.829Z,48.03
2023-04-12T17:20:22.071Z,48.10
2023-04-12T17:23:24.035Z,48.48
2023-04-12T17:26:26.699Z,48.83
2023-04-12T17:29:29.579Z,48.72
2023-04-12T17:32:39.531Z,48.92
2023-04-12T17:35:56.243Z,49.07
2023-04-12T17:39:03.931Z,49.42
2023-04-12T17:42:06.763Z,49.94
2023-04-12T17:45:11.901Z,50.01
2023-04-12T17:48:14.676Z,50.20
2023-04-12T17:51:16.775Z,50.79
2023-04-12T17:54:19.315Z,50.85
2023-04-12T17:57:21.884Z,50.85
2023-04-12T18:00:23.813Z,51.27
2023-04-12T18:03:26.846Z,51.55
2023-04-12T18:06:28.830Z,51.49
2023-04-12T18:09:30.991Z,51.66
2023-04-12T18:12:32.964Z,52.01
2023-04-12T18:15:35.166Z,52.18
2023-04-12T18:18:37.065Z,52.60
2023-04-12T18:21:39.092Z,52.64
2023-04-12T18:24:41.111Z,53.13
2023-04-12T18:27:49.078Z,53.42
2023-04-12T18:30:51.303Z,53.80
2023-04-12T18:33:53.108Z,53.98
2023-04-12T18:36:54.872Z,54.25
2023-04-12T18:39:56.748Z,54.50
2023-04-12T18:42:58.965Z,54.70
2023-04-12T18:46:00.962Z,54.91
2023-04-12T18:49:05.795Z,55.26
2023-04-12T18:52:07.708Z,55.37
2023-04-12T18:55:09.823Z,55.44
2023-04-12T18:58:11.605Z,55.44
2023-04-12T19:01:13.965Z,55.65
2023-04-12T19:04:16.180Z,55.73
2023-04-12T19:07:18.158Z,55.54
2023-04-12T19:10:20.167Z,55.67
2023-04-12T19:13:22.005Z,55.93
2023-04-12T19:16:24.015Z,56.12
2023-04-12T19:19:25.963Z,56.36
2023-04-12T19:22:28.304Z,56.43
2023-04-12T19:25:32.547Z,56.56
2023-04-12T19:28:34.352Z,56.50
2023-04-12T19:31:36.179Z,56.31
2023-04-12T19:34:38.823Z,56.13
2023-04-12T19:37:41.043Z,55.91
2023-04-12T19:40:42.814Z,55.86
2023-04-12T19:43:46.347Z,55.75
2023-04-12T19:46:48.463Z,55.74
2023-04-12T19:49:50.187Z,55.75
2023-04-12T19:52:52.018Z,55.75
2023-04-12T19:55:57.168Z,55.66
2023-04-12T19:58:59.276Z,55.65
2023-04-12T20:02:01.027Z,55.66
2023-04-12T20:05:03.834Z,55.57
2023-04-12T20:08:05.745Z,55.73
2023-04-12T20:11:07.832Z,55.90
2023-04-12T20:14:09.607Z,56.07
2023-04-12T20:17:11.368Z,56.16
2023-04-12T20:20:16.613Z,56.23
2023-04-12T20:23:18.470Z,56.27
2023-04-12T20:26:20.643Z,56.46
2023-04-12T20:29:22.403Z,56.67
2023-04-12T20:32:24.617Z,56.80
2023-04-12T20:35:27.327Z,56.89
2023-04-12T20:38:30.105Z,57.02
2023-04-12T20:41:35.278Z,57.16
2023-04-12T20:44:37.218Z,57.21
2023-04-12T20:47:39.045Z,57.35
2023-04-12T20:50:40.750Z,57.48
2023-04-12T20:53:48.316Z,57.57
2023-04-12T20:56:50.221Z,57.69
2023-04-12T20:59:52.037Z,57.67
2023-04-12T21:02:54.204Z,57.89
2023-04-12T21:05:55.996Z,58.07
2023-04-12T21:08:58.258Z,58.26
2023-04-12T21:12:04.413Z,58.36
2023-04-12T21:15:07.549Z,58.50
2023-04-12T21:18:09.307Z,58.60
2023-04-12T21:21:12.206Z,58.67
2023-04-12T21:24:13.925Z,58.74
2023-04-12T21:27:15.640Z,58.86
2023-04-12T21:30:17.342Z,58.90
2023-04-12T21:33:23.928Z,59.05
2023-04-12T21:36:29.623Z,59.10
2023-04-12T21:39:32.304Z,59.25
2023-04-12T21:42:38.094Z,59.34
2023-04-12T21:45:39.955Z,59.38
2023-04-12T21:48:42.281Z,59.50
2023-04-12T21:51:50.487Z,59.56
2023-04-12T21:54:55.086Z,59.28
2023-04-12T21:57:56.597Z,59.55
2023-04-12T22:00:58.441Z,59.31
2023-04-12T22:04:00.309Z,59.63
2023-04-12T22:07:03.440Z,59.76
2023-04-12T22:10:05.407Z,59.89
2023-04-12T22:13:09.532Z,60.02
2023-04-12T22:16:15.563Z,60.14
2023-04-12T22:19:18.362Z,60.32
2023-04-12T22:22:20.226Z,60.38
2023-04-12T22:25:22.648Z,60.49
2023-04-12T22:28:24.442Z,60.65
2023-04-12T22:31:26.880Z,60.79
2023-04-12T22:34:28.693Z,60.78
2023-04-12T22:37:32.401Z,60.90
2023-04-12T22:40:34.117Z,60.99
2023-04-12T22:43:42.232Z,61.11
2023-04-12T22:46:47.631Z,61.20
2023-04-12T22:49:49.831Z,61.26
2023-04-12T22:52:53.793Z,61.36
2023-04-12T22:55:56.516Z,61.46
2023-04-12T22:58:58.231Z,61.59
2023-04-12T23:02:00.044Z,61.69
2023-04-12T23:05:02.164Z,61.68
2023-04-12T23:08:04.285Z,61.74
2023-04-12T23:11:06.723Z,61.81
2023-04-12T23:14:09.082Z,61.82
2023-04-12T23:17:10.854Z,61.86
2023-04-12T23:20:13.737Z,61.58
2023-04-12T23:23:15.383Z,61.72
2023-04-12T23:26:17.633Z,61.85
2023-04-12T23:29:20.912Z,61.94
2023-04-12T23:32:22.761Z,62.04
2023-04-12T23:35:24.475Z,62.17
2023-04-12T23:38:31.267Z,62.18
2023-04-12T23:41:33.170Z,62.20
2023-04-12T23:44:35.354Z,62.33
2023-04-12T23:47:37.215Z,62.37
2023-04-12T23:50:38.912Z,62.23
2023-04-12T23:53:40.851Z,62.40
2023-04-12T23:56:42.656Z,62.48
2023-04-12T23:59:44.357Z,62.63
